Time;durP1;ratioP1;P1;durP2;ratioP2;P2;SDS_P1;SDS_P2;PMS_P1;PMS_P2;Temp;Humidity;BMP_temperature;BMP_pressure;BME280_temperature;BME280_humidity;BME280_pressure;Samples;Min_cycle;Max_cycle;Signal;HPM_P1;HPM_P2
2022/10/13 00:00:51;;;;;;;26.00;10.90;;;;;;;;;;5022825;28;20029;-84
2022/10/13 00:03:17;;;;;;;19.25;10.68;;;;;;;;;;5027916;28;20334;-85
2022/10/13 00:05:43;;;;;;;19.88;10.25;;;;;;;;;;5022683;28;20100;-84
2022/10/13 00:08:09;;;;;;;27.67;10.50;;;;;;;;;;5028899;28;20018;-85
2022/10/13 00:10:36;;;;;;;26.88;10.45;;;;;;;;;;5023791;28;20028;-85
2022/10/13 00:13:01;;;;;;;34.88;11.68;;;;;;;;;;5025601;28;20485;-86
2022/10/13 00:15:26;;;;;;;20.03;9.63;;;;;;;;;;5025478;28;20095;-85
2022/10/13 00:17:51;;;;;;;23.65;9.60;;;;;;;;;;5027699;28;20299;-85
2022/10/13 00:20:17;;;;;;;18.30;9.25;;;;;;;;;;5025386;28;20025;-85
2022/10/13 00:22:42;;;;;;;30.85;10.13;;;;;;;;;;5028682;28;20063;-85
2022/10/13 00:25:07;;;;;;;25.05;11.30;;;;;;;;;;5024876;28;20025;-84
2022/10/13 00:27:33;;;;;;;23.35;10.05;;;;;;;;;;5027224;28;20017;-85
2022/10/13 00:29:58;;;;;;;28.23;12.90;;;;;;;;;;5027206;28;20021;-85
2022/10/13 00:32:23;;;;;;;31.42;10.27;;;;;;;;;;5026068;28;21042;-84
2022/10/13 00:34:48;;;;;;;22.63;10.50;;;;;;;;;;5027014;28;20532;-84
2022/10/13 00:37:13;;;;;;;23.73;11.15;;;;;;;;;;5025522;28;20291;-84
2022/10/13 00:39:39;;;;;;;24.83;5.63;;;;;;;;;;5021910;28;20108;-85
2022/10/13 00:42:05;;;;;;;24.55;10.90;;;;;;;;;;5026307;28;20083;-84
2022/10/13 00:44:49;;;;;;;26.80;10.35;;;;;;;;;;5028571;28;20017;-84
2022/10/13 00:47:14;;;;;;;20.63;9.45;;;;;;;;;;5027213;28;20017;-85
2022/10/13 00:49:39;;;;;;;30.90;11.07;;;;;;;;;;5027801;28;20028;-85
2022/10/13 00:52:05;;;;;;;21.27;9.93;;;;;;;;;;5027980;28;20032;-85
2022/10/13 00:54:30;;;;;;;28.42;12.23;;;;;;;;;;5027071;28;20267;-85
2022/10/13 00:56:55;;;;;;;27.70;11.37;;;;;;;;;;5024084;28;20029;-84
2022/10/13 00:59:25;;;;;;;25.02;10.45;;;;;;;;;;5027965;28;20276;-85
2022/10/13 01:01:51;;;;;;;19.88;9.98;;;;;;;;;;5024768;28;20053;-84
2022/10/13 01:04:16;;;;;;;31.08;11.20;;;;;;;;;;5027687;28;20504;-84
2022/10/13 01:06:42;;;;;;;22.08;10.77;;;;;;;;;;5023768;28;20029;-85
2022/10/13 01:09:07;;;;;;;28.23;10.98;;;;;;;;;;5027113;28;20025;-85
2022/10/13 01:11:55;;;;;;;30.08;9.93;;;;;;;;;;5025712;28;20035;-84
2022/10/13 01:14:23;;;;;;;28.25;11.40;;;;;;;;;;5016158;28;20091;-84
2022/10/13 01:16:54;;;;;;;23.15;10.65;;;;;;;;;;5028295;28;20104;-85
2022/10/13 01:19:38;;;;;;;21.15;9.68;;;;;;;;;;5025850;28;20018;-85
2022/10/13 01:22:30;;;;;;;28.65;11.38;;;;;;;;;;5025788;28;20031;-85
2022/10/13 01:25:14;;;;;;;28.90;9.35;;;;;;;;;;5025275;28;20029;-85
2022/10/13 01:27:57;;;;;;;26.67;10.30;;;;;;;;;;5025697;28;20723;-85
2022/10/13 01:30:23;;;;;;;32.38;10.90;;;;;;;;;;5026095;28;20025;-84
2022/10/13 01:33:00;;;;;;;30.33;12.07;;;;;;;;;;5025491;28;20079;-85
2022/10/13 01:35:40;;;;;;;27.35;10.35;;;;;;;;;;5025468;28;20029;-85
2022/10/13 01:38:24;;;;;;;26.90;11.40;;;;;;;;;;5023649;28;20083;-84
2022/10/13 01:40:58;;;;;;;25.00;9.60;;;;;;;;;;5022755;28;20478;-85
2022/10/13 01:43:37;;;;;;;30.17;10.80;;;;;;;;;;5025484;28;20067;-85
2022/10/13 01:46:07;;;;;;;25.27;11.40;;;;;;;;;;5026715;28;20501;-84
2022/10/13 01:48:34;;;;;;;27.90;12.35;;;;;;;;;;5016536;28;20474;-85
2022/10/13 01:51:00;;;;;;;26.90;11.25;;;;;;;;;;5026979;28;20021;-85
2022/10/13 01:53:26;;;;;;;28.90;11.20;;;;;;;;;;5025730;28;20823;-85
2022/10/13 01:55:52;;;;;;;20.85;10.32;;;;;;;;;;5026604;28;20478;-84
2022/10/13 01:58:18;;;;;;;24.77;10.48;;;;;;;;;;5025491;28;20033;-85
2022/10/13 02:00:49;;;;;;;28.85;12.05;;;;;;;;;;5026445;28;20021;-85
2022/10/13 02:03:19;;;;;;;28.20;11.07;;;;;;;;;;5022510;28;20497;-84
2022/10/13 02:06:02;;;;;;;29.77;11.88;;;;;;;;;;5023610;28;20471;-85
2022/10/13 02:08:36;;;;;;;28.58;10.82;;;;;;;;;;5021921;28;20397;-84
2022/10/13 02:11:04;;;;;;;25.20;8.45;;;;;;;;;;5028846;28;20036;-85
2022/10/13 02:13:31;;;;;;;38.28;11.35;;;;;;;;;;5027280;28;20160;-85
2022/10/13 02:15:58;;;;;;;29.08;11.13;;;;;;;;;;5024138;28;20022;-85
2022/10/13 02:18:30;;;;;;;29.63;11.15;;;;;;;;;;5026441;28;20018;-85
2022/10/13 02:20:56;;;;;;;24.95;10.63;;;;;;;;;;5024388;28;20025;-85
2022/10/13 02:23:22;;;;;;;31.42;11.25;;;;;;;;;;5026122;28;20018;-84
2022/10/13 02:25:49;;;;;;;22.05;10.70;;;;;;;;;;5025194;28;20820;-85
2022/10/13 02:28:15;;;;;;;29.02;11.68;;;;;;;;;;5024694;28;20424;-85
2022/10/13 02:30:41;;;;;;;30.63;10.57;;;;;;;;;;5028070;28;20037;-85
2022/10/13 02:33:07;;;;;;;22.08;10.30;;;;;;;;;;5026051;28;20026;-84
2022/10/13 02:35:32;;;;;;;27.80;11.07;;;;;;;;;;5023959;28;20783;-84
2022/10/13 02:37:57;;;;;;;27.42;10.60;;;;;;;;;;5025795;28;20025;-85
2022/10/13 02:40:23;;;;;;;23.50;11.20;;;;;;;;;;5024423;28;20465;-85
2022/10/13 02:42:48;;;;;;;23.70;10.77;;;;;;;;;;5026277;28;20056;-85
2022/10/13 02:45:13;;;;;;;32.00;10.60;;;;;;;;;;5025843;28;20084;-84
2022/10/13 02:47:39;;;;;;;25.08;10.25;;;;;;;;;;5026114;28;20026;-85
2022/10/13 02:50:05;;;;;;;32.42;12.48;;;;;;;;;;5028007;28;20032;-85
2022/10/13 02:52:30;;;;;;;32.03;11.20;;;;;;;;;;5027292;28;20050;-85
2022/10/13 02:54:55;;;;;;;36.93;11.30;;;;;;;;;;5025638;28;20049;-85
2022/10/13 02:57:20;;;;;;;29.73;13.60;;;;;;;;;;5027094;28;20772;-85
2022/10/13 02:59:45;;;;;;;40.13;12.15;;;;;;;;;;5028544;28;20033;-85
2022/10/13 03:02:11;;;;;;;27.07;11.67;;;;;;;;;;5028294;28;20105;-85
2022/10/13 03:04:36;;;;;;;28.77;10.65;;;;;;;;;;5027444;28;21000;-85
2022/10/13 03:07:01;;;;;;;32.87;12.03;;;;;;;;;;5029461;28;20045;-85
2022/10/13 03:09:27;;;;;;;28.88;10.95;;;;;;;;;;5027469;28;20660;-84
2022/10/13 03:11:52;;;;;;;26.85;11.73;;;;;;;;;;5025567;28;20115;-85
2022/10/13 03:14:17;;;;;;;25.77;10.13;;;;;;;;;;5029838;28;20041;-85
2022/10/13 03:16:42;;;;;;;30.27;11.27;;;;;;;;;;5027774;28;20033;-85
2022/10/13 03:19:08;;;;;;;24.50;9.93;;;;;;;;;;5031303;28;20026;-85
2022/10/13 03:21:33;;;;;;;22.40;10.87;;;;;;;;;;5028393;28;20268;-85
2022/10/13 03:23:58;;;;;;;28.88;11.15;;;;;;;;;;5028772;28;21299;-85
2022/10/13 03:26:23;;;;;;;28.13;10.23;;;;;;;;;;5027110;28;20021;-85
2022/10/13 03:28:49;;;;;;;32.05;10.43;;;;;;;;;;5027493;28;20010;-85
2022/10/13 03:31:14;;;;;;;25.60;10.85;;;;;;;;;;5021595;28;20025;-85
2022/10/13 03:33:39;;;;;;;27.27;10.82;;;;;;;;;;5030875;28;20025;-85
2022/10/13 03:36:06;;;;;;;24.90;11.13;;;;;;;;;;5027570;28;20084;-85
2022/10/13 03:38:32;;;;;;;24.27;11.05;;;;;;;;;;5027661;28;20062;-85
2022/10/13 03:41:03;;;;;;;33.25;10.55;;;;;;;;;;5026220;28;20727;-85
2022/10/13 03:43:28;;;;;;;;;;;;;;;;;;5029198;28;20026;-85
2022/10/13 03:45:56;;;;;;;26.92;8.27;;;;;;;;;;5024735;28;19963;-84
2022/10/13 03:48:22;;;;;;;31.48;12.43;;;;;;;;;;5026758;28;20028;-85
2022/10/13 03:50:47;;;;;;;24.77;11.07;;;;;;;;;;5029542;28;20436;-85
2022/10/13 03:53:12;;;;;;;20.97;10.17;;;;;;;;;;5025838;28;20029;-84
2022/10/13 03:55:37;;;;;;;30.13;11.27;;;;;;;;;;5028868;28;20252;-85
2022/10/13 03:58:03;;;;;;;29.80;11.97;;;;;;;;;;5027594;28;20051;-84
2022/10/13 04:00:28;;;;;;;29.40;11.20;;;;;;;;;;5028362;28;20276;-86
2022/10/13 04:02:53;;;;;;;28.85;10.93;;;;;;;;;;5024633;28;20049;-85
2022/10/13 04:05:19;;;;;;;19.80;9.50;;;;;;;;;;5027276;28;20088;-85
2022/10/13 04:07:44;;;;;;;29.10;10.68;;;;;;;;;;5026761;28;20766;-85
2022/10/13 04:10:09;;;;;;;24.30;10.32;;;;;;;;;;5047569;23;20521;-70
2022/10/13 04:12:34;;;;;;;23.42;11.10;;;;;;;;;;5046154;28;20477;-65
2022/10/13 04:14:59;;;;;;;27.20;10.83;;;;;;;;;;5048275;28;20025;-64
2022/10/13 04:17:25;;;;;;;27.17;11.57;;;;;;;;;;5031455;28;20660;-67
2022/10/13 04:19:50;;;;;;;22.15;10.18;;;;;;;;;;5029568;28;20040;-64
2022/10/13 04:22:15;;;;;;;31.77;10.23;;;;;;;;;;5028861;28;20017;-66
2022/10/13 04:24:40;;;;;;;24.30;9.60;;;;;;;;;;5059119;22;20299;-66
2022/10/13 04:27:05;;;;;;;32.85;10.48;;;;;;;;;;5070846;28;20013;-67
2022/10/13 04:29:31;;;;;;;35.47;10.68;;;;;;;;;;5069488;28;20400;-65
2022/10/13 04:31:58;;;;;;;24.03;10.40;;;;;;;;;;5070989;28;20051;-66
2022/10/13 04:34:23;;;;;;;21.40;10.05;;;;;;;;;;5062373;28;20271;-66
2022/10/13 04:36:49;;;;;;;29.97;10.33;;;;;;;;;;5046176;28;20530;-66
2022/10/13 04:39:14;;;;;;;32.90;11.32;;;;;;;;;;5047660;28;20330;-66
2022/10/13 04:41:39;;;;;;;19.53;10.00;;;;;;;;;;5051129;28;20521;-65
2022/10/13 04:44:04;;;;;;;28.03;9.73;;;;;;;;;;5050419;28;20267;-66
2022/10/13 04:46:29;;;;;;;31.80;10.25;;;;;;;;;;5050511;28;20608;-67
2022/10/13 04:48:55;;;;;;;23.00;9.73;;;;;;;;;;5050240;28;20697;-65
2022/10/13 04:51:21;;;;;;;24.95;9.38;;;;;;;;;;5050386;28;20332;-67
2022/10/13 04:53:46;;;;;;;26.58;10.25;;;;;;;;;;5050116;28;20070;-66
2022/10/13 04:56:13;;;;;;;24.98;9.23;;;;;;;;;;5050416;28;20096;-66
2022/10/13 04:58:39;;;;;;;21.80;9.38;;;;;;;;;;5050111;28;20033;-65
2022/10/13 05:01:06;;;;;;;24.98;9.35;;;;;;;;;;5050402;28;20029;-66
2022/10/13 05:03:31;;;;;;;24.52;10.25;;;;;;;;;;5045675;28;20501;-66
2022/10/13 05:05:57;;;;;;;22.20;10.07;;;;;;;;;;5046566;28;20021;-65
2022/10/13 05:08:22;;;;;;;26.33;9.20;;;;;;;;;;5049818;28;20131;-66
2022/10/13 05:10:57;;;;;;;22.27;9.65;;;;;;;;;;5049881;28;20012;-65
2022/10/13 05:13:23;;;;;;;28.48;10.50;;;;;;;;;;5049937;28;20020;-65
2022/10/13 05:15:48;;;;;;;35.67;9.90;;;;;;;;;;5050095;28;20027;-65
2022/10/13 05:18:13;;;;;;;24.73;10.27;;;;;;;;;;5049510;28;20040;-67
2022/10/13 05:20:38;;;;;;;20.60;11.03;;;;;;;;;;5045086;28;20354;-65
2022/10/13 05:23:03;;;;;;;24.93;9.80;;;;;;;;;;5048950;28;20358;-67
2022/10/13 05:25:29;;;;;;;23.77;10.98;;;;;;;;;;5050075;28;20329;-65
2022/10/13 05:27:54;;;;;;;26.43;10.33;;;;;;;;;;5047629;28;20037;-66
2022/10/13 05:30:19;;;;;;;20.80;10.33;;;;;;;;;;5049894;28;20587;-65
2022/10/13 05:32:44;;;;;;;26.30;10.57;;;;;;;;;;5049234;28;20370;-66
2022/10/13 05:35:09;;;;;;;28.90;9.37;;;;;;;;;;5047242;28;20583;-67
2022/10/13 05:37:34;;;;;;;22.63;9.93;;;;;;;;;;5049963;28;20266;-65
2022/10/13 05:39:59;;;;;;;21.10;8.90;;;;;;;;;;5049825;28;20283;-66
2022/10/13 05:42:27;;;;;;;24.47;10.13;;;;;;;;;;5048967;28;20290;-66
2022/10/13 05:44:52;;;;;;;17.02;8.82;;;;;;;;;;5049417;28;20271;-65
2022/10/13 05:47:17;;;;;;;26.08;9.77;;;;;;;;;;5047865;28;20021;-67
2022/10/13 05:49:42;;;;;;;23.90;10.88;;;;;;;;;;5050052;28;20047;-66
2022/10/13 05:52:09;;;;;;;25.57;10.00;;;;;;;;;;5049054;28;20039;-67
2022/10/13 05:54:36;;;;;;;20.42;9.80;;;;;;;;;;5049809;28;20263;-67
2022/10/13 05:57:03;;;;;;;23.58;8.95;;;;;;;;;;5047986;28;20543;-66
2022/10/13 05:59:29;;;;;;;23.17;9.45;;;;;;;;;;5049809;28;20393;-67
2022/10/13 06:01:54;;;;;;;25.17;10.43;;;;;;;;;;5046709;28;20021;-66
2022/10/13 06:04:22;;;;;;;22.40;9.50;;;;;;;;;;5049706;28;20110;-66
2022/10/13 06:06:48;;;;;;;21.42;9.52;;;;;;;;;;5048815;28;20369;-67
2022/10/13 06:09:13;;;;;;;17.90;9.10;;;;;;;;;;5044884;28;20092;-66
2022/10/13 06:11:38;;;;;;;19.10;8.82;;;;;;;;;;5049258;28;20013;-66
2022/10/13 06:14:04;;;;;;;22.92;9.45;;;;;;;;;;5049556;28;20099;-66
2022/10/13 06:16:29;;;;;;;19.42;8.88;;;;;;;;;;5046670;28;20021;-67
2022/10/13 06:18:54;;;;;;;20.20;8.95;;;;;;;;;;5048972;28;20260;-65
2022/10/13 06:21:19;;;;;;;24.80;9.03;;;;;;;;;;5039533;28;20072;-66
2022/10/13 06:23:44;;;;;;;22.70;9.37;;;;;;;;;;5049355;28;20255;-66
2022/10/13 06:26:10;;;;;;;21.38;9.90;;;;;;;;;;5049132;28;20405;-66
2022/10/13 06:28:35;;;;;;;21.27;8.77;;;;;;;;;;5052096;28;20275;-67
2022/10/13 06:31:02;;;;;;;20.37;8.67;;;;;;;;;;5052447;28;20434;-67
2022/10/13 06:33:27;;;;;;;24.92;10.25;;;;;;;;;;5052170;28;20793;-67
2022/10/13 06:35:52;;;;;;;19.42;8.82;;;;;;;;;;5052227;28;20025;-66
2022/10/13 06:38:18;;;;;;;23.33;8.87;;;;;;;;;;5052486;28;20029;-66
2022/10/13 06:40:43;;;;;;;19.33;9.63;;;;;;;;;;5052052;28;20647;-67
2022/10/13 06:43:08;;;;;;;31.13;10.23;;;;;;;;;;5053100;28;20020;-66
2022/10/13 06:45:34;;;;;;;25.98;9.82;;;;;;;;;;5051823;28;20346;-68
2022/10/13 06:47:59;;;;;;;18.57;9.30;;;;;;;;;;5053765;28;20661;-67
2022/10/13 06:50:24;;;;;;;20.20;9.20;;;;;;;;;;5049260;28;20267;-67
2022/10/13 06:52:49;;;;;;;18.85;10.50;;;;;;;;;;5050589;28;20867;-66
2022/10/13 06:55:14;;;;;;;23.37;9.60;;;;;;;;;;5051589;28;20029;-67
2022/10/13 06:57:39;;;;;;;23.77;9.40;;;;;;;;;;5052385;28;20262;-66
2022/10/13 07:00:05;;;;;;;21.50;10.17;;;;;;;;;;5051593;28;20301;-67
2022/10/13 07:02:31;;;;;;;21.83;8.88;;;;;;;;;;5050142;28;20274;-67
2022/10/13 07:04:56;;;;;;;17.55;8.35;;;;;;;;;;5052726;28;20021;-66
2022/10/13 07:07:21;;;;;;;20.33;8.27;;;;;;;;;;5048883;28;20053;-66
2022/10/13 07:09:46;;;;;;;24.30;9.43;;;;;;;;;;5048151;28;20778;-66
2022/10/13 07:12:12;;;;;;;26.50;8.80;;;;;;;;;;5051951;28;20021;-66
2022/10/13 07:14:37;;;;;;;15.98;8.95;;;;;;;;;;5052417;28;20268;-66
2022/10/13 07:17:02;;;;;;;21.67;8.27;;;;;;;;;;5048982;28;20028;-66
2022/10/13 07:19:27;;;;;;;26.87;9.20;;;;;;;;;;5052069;28;20291;-65
2022/10/13 07:21:52;;;;;;;18.30;7.57;;;;;;;;;;5046442;28;20270;-65
2022/10/13 07:24:18;;;;;;;13.95;5.57;;;;;;;;;;5051843;28;20035;-64
2022/10/13 07:26:43;;;;;;;28.00;9.90;;;;;;;;;;5050680;28;20636;-65
2022/10/13 07:29:09;;;;;;;14.57;6.45;;;;;;;;;;5051738;28;20009;-64
2022/10/13 07:31:34;;;;;;;17.60;9.00;;;;;;;;;;5051657;28;20047;-64
2022/10/13 07:33:59;;;;;;;20.30;7.43;;;;;;;;;;5050552;28;20056;-64
2022/10/13 07:36:26;;;;;;;16.98;6.75;;;;;;;;;;5048933;28;20786;-65
2022/10/13 07:38:51;;;;;;;17.67;7.35;;;;;;;;;;5047734;28;20016;-64
2022/10/13 07:41:16;;;;;;;25.13;7.97;;;;;;;;;;5043774;28;20021;-65
2022/10/13 07:43:41;;;;;;;22.67;7.68;;;;;;;;;;5051327;28;20032;-64
2022/10/13 07:46:07;;;;;;;21.80;9.88;;;;;;;;;;5050335;28;20033;-64
2022/10/13 07:48:33;;;;;;;17.77;7.78;;;;;;;;;;5049491;28;20382;-66
2022/10/13 07:51:01;;;;;;;21.92;7.28;;;;;;;;;;5051127;28;20386;-66
2022/10/13 07:53:26;;;;;;;14.35;6.15;;;;;;;;;;5031789;28;20017;-65
2022/10/13 07:55:51;;;;;;;19.67;9.45;;;;;;;;;;5049092;28;20027;-66
2022/10/13 07:58:17;;;;;;;17.70;4.97;;;;;;;;;;5048874;28;20033;-68
2022/10/13 08:00:42;;;;;;;29.63;9.00;;;;;;;;;;5050027;28;20287;-65
2022/10/13 08:03:07;;;;;;;24.92;8.85;;;;;;;;;;5047705;28;20032;-67
2022/10/13 08:05:32;;;;;;;23.03;7.90;;;;;;;;;;5050199;28;20063;-69
2022/10/13 08:07:58;;;;;;;24.60;7.77;;;;;;;;;;5051074;28;20790;-68
2022/10/13 08:10:23;;;;;;;23.13;7.03;;;;;;;;;;5049219;28;20285;-68
2022/10/13 08:12:48;;;;;;;20.42;7.20;;;;;;;;;;5051766;28;20048;-68
2022/10/13 08:15:13;;;;;;;24.80;7.67;;;;;;;;;;5050381;28;20556;-68
2022/10/13 08:17:38;;;;;;;20.53;7.53;;;;;;;;;;5049994;28;20263;-68
2022/10/13 08:20:04;;;;;;;20.00;7.57;;;;;;;;;;5048354;28;20644;-68
2022/10/13 08:22:30;;;;;;;13.80;5.00;;;;;;;;;;5049059;28;20350;-68
2022/10/13 08:24:55;;;;;;;14.05;7.03;;;;;;;;;;5051014;28;20028;-66
2022/10/13 08:27:21;;;;;;;24.83;9.23;;;;;;;;;;5050676;28;20031;-67
2022/10/13 08:29:46;;;;;;;27.50;7.18;;;;;;;;;;5051483;28;20295;-65
2022/10/13 08:32:12;;;;;;;31.23;8.73;;;;;;;;;;5050341;28;20056;-68
2022/10/13 08:34:37;;;;;;;15.88;7.72;;;;;;;;;;5050569;28;20013;-65
2022/10/13 08:37:02;;;;;;;17.55;7.38;;;;;;;;;;5046830;28;20032;-70
2022/10/13 08:39:27;;;;;;;23.77;6.45;;;;;;;;;;5050872;28;20358;-66
2022/10/13 08:41:55;;;;;;;17.80;7.55;;;;;;;;;;5049344;28;20466;-69
2022/10/13 08:44:38;;;;;;;20.52;8.50;;;;;;;;;;5050522;28;20024;-69
2022/10/13 08:47:13;;;;;;;17.27;7.40;;;;;;;;;;5048153;28;20017;-67
2022/10/13 08:49:39;;;;;;;26.48;8.50;;;;;;;;;;5044294;28;20032;-68
2022/10/13 08:52:04;;;;;;;26.17;7.93;;;;;;;;;;5049905;28;20029;-67
2022/10/13 08:54:31;;;;;;;14.35;6.68;;;;;;;;;;5051023;28;20362;-67
2022/10/13 08:56:56;;;;;;;13.45;5.25;;;;;;;;;;5049727;28;20430;-66
2022/10/13 08:59:21;;;;;;;19.77;8.90;;;;;;;;;;5050601;28;20096;-64
2022/10/13 09:01:48;;;;;;;10.20;4.47;;;;;;;;;;5049079;28;20282;-66
2022/10/13 09:04:28;;;;;;;7.75;3.95;;;;;;;;;;5043130;28;20174;-64
2022/10/13 09:06:57;;;;;;;25.17;7.97;;;;;;;;;;5049770;28;20071;-63
2022/10/13 09:09:22;;;;;;;10.50;5.22;;;;;;;;;;5049317;28;20017;-63
2022/10/13 09:11:48;;;;;;;15.52;6.47;;;;;;;;;;5050795;28;20531;-65
2022/10/13 09:14:23;;;;;;;20.20;8.57;;;;;;;;;;5049484;28;20073;-64
2022/10/13 09:16:49;;;;;;;19.13;7.20;;;;;;;;;;5048778;28;20139;-68
2022/10/13 09:19:26;;;;;;;13.05;4.90;;;;;;;;;;5048865;28;20028;-65
2022/10/13 09:21:53;;;;;;;16.80;5.43;;;;;;;;;;5048490;28;20373;-63
2022/10/13 09:24:19;;;;;;;21.85;5.35;;;;;;;;;;5049564;28;20412;-65
2022/10/13 09:26:46;;;;;;;15.82;6.63;;;;;;;;;;5048392;28;20441;-64
2022/10/13 09:29:37;;;;;;;36.13;9.63;;;;;;;;;;5049651;28;20155;-64
2022/10/13 09:32:14;;;;;;;17.50;6.30;;;;;;;;;;5035996;28;20501;-67
2022/10/13 09:34:39;;;;;;;21.90;7.03;;;;;;;;;;5046772;28;20043;-67
2022/10/13 09:37:05;;;;;;;15.93;4.73;;;;;;;;;;5048310;28;20017;-65
2022/10/13 09:39:31;;;;;;;17.08;7.78;;;;;;;;;;5048546;28;20302;-66
2022/10/13 09:42:15;;;;;;;9.32;4.13;;;;;;;;;;5049387;28;20052;-66
2022/10/13 09:44:40;;;;;;;17.63;7.95;;;;;;;;;;5045427;28;20074;-65
2022/10/13 09:47:16;;;;;;;19.27;7.83;;;;;;;;;;5046174;28;20029;-64
2022/10/13 09:49:42;;;;;;;8.82;3.85;;;;;;;;;;5047250;28;20263;-64
2022/10/13 09:52:10;;;;;;;15.98;5.18;;;;;;;;;;5049196;28;20032;-64
2022/10/13 09:54:38;;;;;;;13.13;5.40;;;;;;;;;;5048692;28;20063;-64
2022/10/13 09:57:15;;;;;;;11.63;5.25;;;;;;;;;;5048786;28;20408;-64
2022/10/13 09:59:46;;;;;;;22.20;8.35;;;;;;;;;;5046458;28;20017;-65
2022/10/13 10:02:18;;;;;;;16.27;7.05;;;;;;;;;;5046271;28;20013;-65
2022/10/13 10:04:44;;;;;;;23.40;8.05;;;;;;;;;;5046536;28;20103;-66
2022/10/13 10:07:16;;;;;;;12.93;6.57;;;;;;;;;;5051755;28;20021;-65
2022/10/13 10:09:46;;;;;;;14.52;6.50;;;;;;;;;;5049622;28;20029;-64
2022/10/13 10:12:14;;;;;;;13.02;5.68;;;;;;;;;;5051052;28;20039;-64
2022/10/13 10:14:39;;;;;;;12.48;6.40;;;;;;;;;;5049824;28;20028;-65
2022/10/13 10:17:04;;;;;;;20.70;6.27;;;;;;;;;;5051387;28;20028;-68
2022/10/13 10:19:48;;;;;;;12.55;6.90;;;;;;;;;;5051574;28;20283;-65
2022/10/13 10:22:32;;;;;;;10.98;4.13;;;;;;;;;;5052271;28;20009;-64
2022/10/13 10:25:17;;;;;;;15.65;8.13;;;;;;;;;;5014857;23;1176872;-84
2022/10/13 10:28:08;;;;;;;18.80;5.55;;;;;;;;;;5049734;28;20021;-83
2022/10/13 10:30:36;;;;;;;13.77;6.82;;;;;;;;;;5029727;28;20013;-84
2022/10/13 10:33:11;;;;;;;8.55;4.13;;;;;;;;;;5026096;28;20044;-85
2022/10/13 10:35:49;;;;;;;13.90;6.18;;;;;;;;;;5023667;28;20486;-84
2022/10/13 10:38:14;;;;;;;15.07;5.10;;;;;;;;;;5027367;28;20018;-84
2022/10/13 10:40:49;;;;;;;16.20;6.13;;;;;;;;;;5030947;28;20026;-85
2022/10/13 10:43:14;;;;;;;20.13;7.03;;;;;;;;;;5029309;28;20321;-84
2022/10/13 10:45:43;;;;;;;19.40;7.70;;;;;;;;;;5028967;28;20025;-86
2022/10/13 10:48:17;;;;;;;13.43;5.03;;;;;;;;;;5027781;28;20417;-84
2022/10/13 10:50:43;;;;;;;21.40;7.88;;;;;;;;;;5028541;28;20017;-86
2022/10/13 10:53:15;;;;;;;14.27;5.60;;;;;;;;;;5026027;28;20029;-85
2022/10/13 10:55:57;;;;;;;11.32;3.67;;;;;;;;;;5025808;28;20029;-84
2022/10/13 10:58:28;;;;;;;18.27;6.80;;;;;;;;;;5028356;28;20017;-83
2022/10/13 11:01:13;;;;;;;17.02;6.47;;;;;;;;;;5030244;28;20020;-84
2022/10/13 11:03:41;;;;;;;19.13;6.47;;;;;;;;;;5020047;28;20359;-84
2022/10/13 11:06:21;;;;;;;13.27;5.22;;;;;;;;;;5029221;28;20022;-84
2022/10/13 11:08:47;;;;;;;23.42;5.57;;;;;;;;;;5026370;28;20413;-85
2022/10/13 11:11:21;;;;;;;25.60;10.05;;;;;;;;;;5032182;28;20322;-84
2022/10/13 11:13:58;;;;;;;26.70;8.07;;;;;;;;;;5027681;28;20044;-84
2022/10/13 11:16:29;;;;;;;17.45;5.50;;;;;;;;;;5025258;28;20044;-83
2022/10/13 11:18:58;;;;;;;21.08;7.53;;;;;;;;;;5030526;28;20079;-84
2022/10/13 11:21:23;;;;;;;20.17;7.15;;;;;;;;;;5026678;28;20072;-84
2022/10/13 11:23:49;;;;;;;10.57;3.90;;;;;;;;;;5020340;28;20025;-85
2022/10/13 11:26:18;;;;;;;15.05;6.22;;;;;;;;;;5026112;28;20021;-87
2022/10/13 11:28:44;;;;;;;12.77;5.53;;;;;;;;;;5029298;28;20124;-88
2022/10/13 11:31:12;;;;;;;19.85;5.55;;;;;;;;;;5027837;28;20569;-88
2022/10/13 11:33:37;;;;;;;15.85;7.18;;;;;;;;;;5030221;28;20025;-88
2022/10/13 11:36:21;;;;;;;10.53;2.43;;;;;;;;;;5027540;28;20068;-89
2022/10/13 11:38:49;;;;;;;14.35;6.75;;;;;;;;;;5025036;28;20401;-88
2022/10/13 11:41:19;;;;;;;18.05;7.50;;;;;;;;;;5022998;28;20133;-87
2022/10/13 11:43:52;;;;;;;12.15;5.93;;;;;;;;;;5021777;28;20014;-90
2022/10/13 11:46:36;;;;;;;15.98;6.28;;;;;;;;;;5016149;28;20029;-88
2022/10/13 11:49:01;;;;;;;21.88;7.65;;;;;;;;;;5028861;28;20558;-89
2022/10/13 11:51:27;;;;;;;14.17;6.43;;;;;;;;;;5027648;28;20055;-89
2022/10/13 11:54:02;;;;;;;23.05;6.78;;;;;;;;;;5028472;28;20131;-89
2022/10/13 11:56:32;;;;;;;13.15;5.93;;;;;;;;;;5023949;28;20165;-88
2022/10/13 11:58:57;;;;;;;23.88;7.25;;;;;;;;;;5024643;28;20026;-88
2022/10/13 12:01:22;;;;;;;24.07;7.17;;;;;;;;;;5029175;28;20024;-89
2022/10/13 12:03:47;;;;;;;26.93;9.13;;;;;;;;;;5022525;28;20272;-88
2022/10/13 12:06:13;;;;;;;24.08;8.50;;;;;;;;;;5021366;28;21712;-88
2022/10/13 12:08:38;;;;;;;16.25;7.07;;;;;;;;;;5020765;28;20326;-88
2022/10/13 12:11:06;;;;;;;18.35;7.13;;;;;;;;;;5030614;28;20056;-90
2022/10/13 12:13:32;;;;;;;20.25;7.28;;;;;;;;;;5035446;28;20014;-90
2022/10/13 12:15:59;;;;;;;20.25;6.90;;;;;;;;;;5036890;28;20108;-90
2022/10/13 12:18:32;;;;;;;17.80;7.13;;;;;;;;;;5039335;28;20037;-90
2022/10/13 12:20:59;;;;;;;17.27;7.53;;;;;;;;;;5042328;28;20144;-89
2022/10/13 12:23:25;;;;;;;21.38;7.35;;;;;;;;;;5038728;28;20073;-89
2022/10/13 12:25:55;;;;;;;27.92;7.80;;;;;;;;;;5043320;28;20025;-89
2022/10/13 12:28:22;;;;;;;25.58;7.72;;;;;;;;;;5031671;28;20021;-88
2022/10/13 12:30:55;;;;;;;23.95;7.65;;;;;;;;;;5030196;28;20435;-87
2022/10/13 12:33:26;;;;;;;28.27;8.90;;;;;;;;;;5027233;28;20116;-91
2022/10/13 12:35:51;;;;;;;16.83;7.38;;;;;;;;;;5028903;28;20028;-87
2022/10/13 12:38:20;;;;;;;16.92;8.23;;;;;;;;;;5028107;28;20017;-89
2022/10/13 12:40:49;;;;;;;19.15;7.40;;;;;;;;;;5028975;28;20068;-88
2022/10/13 12:43:21;;;;;;;18.35;8.15;;;;;;;;;;5026780;28;20478;-88
2022/10/13 12:45:46;;;;;;;14.18;6.03;;;;;;;;;;5026864;28;20108;-89
2022/10/13 12:48:34;;;;;;;21.75;7.63;;;;;;;;;;5027658;28;20441;-88
2022/10/13 12:51:21;;;;;;;14.95;5.88;;;;;;;;;;5028410;28;20115;-88
2022/10/13 12:53:46;;;;;;;18.40;8.63;;;;;;;;;;5027478;28;20339;-88
2022/10/13 12:56:28;;;;;;;17.92;7.40;;;;;;;;;;5034646;28;20394;-88
2022/10/13 12:58:54;;;;;;;22.58;8.68;;;;;;;;;;5034869;28;20101;-89
2022/10/13 13:01:23;;;;;;;22.08;7.85;;;;;;;;;;5039857;28;20048;-88
2022/10/13 13:03:53;;;;;;;18.38;7.13;;;;;;;;;;5022437;28;20025;-88
2022/10/13 13:06:24;;;;;;;18.38;8.35;;;;;;;;;;5024781;28;20105;-88
2022/10/13 13:09:17;;;;;;;24.73;8.32;;;;;;;;;;5025073;28;20032;-90
2022/10/13 13:11:42;;;;;;;16.40;7.68;;;;;;;;;;5026571;28;20594;-89
2022/10/13 13:14:26;;;;;;;22.10;8.83;;;;;;;;;;5030447;28;20052;-89
2022/10/13 13:17:06;;;;;;;23.17;9.10;;;;;;;;;;5032649;28;20338;-88
2022/10/13 13:19:32;;;;;;;19.58;7.43;;;;;;;;;;5030184;28;20020;-89
2022/10/13 13:21:57;;;;;;;20.70;8.13;;;;;;;;;;5026464;28;20033;-88
2022/10/13 13:24:22;;;;;;;21.47;8.90;;;;;;;;;;5028696;28;20029;-89
2022/10/13 13:26:47;;;;;;;21.70;7.93;;;;;;;;;;5025284;28;20346;-87
2022/10/13 13:29:15;;;;;;;22.23;7.13;;;;;;;;;;5026380;28;20298;-90
2022/10/13 13:31:41;;;;;;;16.05;7.90;;;;;;;;;;5040620;28;20284;-89
2022/10/13 13:34:06;;;;;;;18.77;7.32;;;;;;;;;;5028555;28;20056;-87
2022/10/13 13:36:31;;;;;;;21.03;8.03;;;;;;;;;;5032817;28;20017;-90
2022/10/13 13:38:56;;;;;;;17.08;7.10;;;;;;;;;;5030164;28;20791;-90
2022/10/13 13:41:26;;;;;;;15.03;8.17;;;;;;;;;;5024620;28;20033;-88
2022/10/13 13:43:51;;;;;;;16.50;8.00;;;;;;;;;;5018873;28;20786;-89
2022/10/13 13:46:18;;;;;;;21.83;7.47;;;;;;;;;;5028580;28;20017;-88
2022/10/13 13:48:43;;;;;;;16.00;4.88;;;;;;;;;;5030819;28;20279;-88
2022/10/13 13:51:08;;;;;;;13.02;5.97;;;;;;;;;;5028941;28;20026;-88
2022/10/13 13:53:34;;;;;;;15.02;6.53;;;;;;;;;;5012690;28;20031;-89
2022/10/13 13:55:59;;;;;;;15.73;6.47;;;;;;;;;;5024397;28;20025;-89
2022/10/13 13:58:24;;;;;;;16.90;5.77;;;;;;;;;;5019408;28;20292;-88
2022/10/13 14:00:49;;;;;;;16.52;6.88;;;;;;;;;;5026961;28;20779;-88
2022/10/13 14:03:15;;;;;;;15.98;6.57;;;;;;;;;;5021236;28;20470;-88
2022/10/13 14:05:40;;;;;;;15.05;6.35;;;;;;;;;;5021019;28;20080;-87
2022/10/13 14:08:06;;;;;;;15.60;6.80;;;;;;;;;;5012163;28;20079;-89
2022/10/13 14:10:31;;;;;;;18.98;7.18;;;;;;;;;;5015425;28;20545;-88
2022/10/13 14:12:56;;;;;;;12.48;6.35;;;;;;;;;;5020453;28;20402;-88
2022/10/13 14:15:21;;;;;;;16.20;6.88;;;;;;;;;;5014206;28;20091;-89
2022/10/13 14:17:47;;;;;;;18.80;7.03;;;;;;;;;;5023535;28;20025;-88
2022/10/13 14:20:12;;;;;;;15.77;7.53;;;;;;;;;;5018663;28;20117;-90
2022/10/13 14:22:38;;;;;;;17.40;7.18;;;;;;;;;;5015986;28;20022;-90
2022/10/13 14:25:07;;;;;;;26.45;9.85;;;;;;;;;;5019467;28;20374;-91
2022/10/13 14:27:33;;;;;;;20.95;6.55;;;;;;;;;;5023728;28;20513;-90
2022/10/13 14:29:59;;;;;;;17.90;7.72;;;;;;;;;;5017983;28;20029;-92